Time;durP1;ratioP1;P1;durP2;ratioP2;P2;SDS_P1;SDS_P2;PMS_P1;PMS_P2;Temp;Humidity;BMP_temperature;BMP_pressure;BME280_temperature;BME280_humidity;BME280_pressure;Samples;Min_cycle;Max_cycle;Signal;HPM_P1;HPM_P2
2023/01/29 00:00:13;;;;;;;;;;;;;;;22.07;37.41;101137.70;106037;1283;61265;-85
2023/01/29 00:02:38;;;;;;;;;;;;;;;22.08;37.45;101139.64;106082;1283;61253;-84
2023/01/29 00:05:05;;;;;;;;;;;;;;;22.08;37.30;101143.95;106039;1283;61232;-84
2023/01/29 00:07:32;;;;;;;;;;;;;;;22.08;37.29;101153.65;105956;1283;61248;-85
2023/01/29 00:09:57;;;;;;;;;;;;;;;22.08;37.34;101150.07;106052;1287;61728;-85
2023/01/29 00:12:23;;;;;;;;;;;;;;;22.08;37.33;101153.48;105849;1283;61244;-85
2023/01/29 00:14:50;;;;;;;;;;;;;;;22.08;37.28;101157.23;106024;1285;61302;-85
2023/01/29 00:17:16;;;;;;;;;;;;;;;22.08;37.25;101153.63;106046;1283;61243;-85
2023/01/29 00:19:42;;;;;;;;;;;;;;;22.07;37.32;101153.30;106006;1283;61278;-87
2023/01/29 00:22:07;;;;;;;;;;;;;;;22.08;37.25;101155.61;106004;1283;61273;-84
2023/01/29 00:24:34;;;;;;;;;;;;;;;22.08;37.28;101154.72;105895;1288;61286;-84
2023/01/29 00:27:00;;;;;;;;;;;;;;;22.08;37.29;101157.75;106027;1283;72259;-84
2023/01/29 00:29:25;;;;;;;;;;;;;;;22.08;37.28;101158.31;106000;1287;61338;-85
2023/01/29 00:31:51;;;;;;;;;;;;;;;22.08;37.31;101160.81;106041;1283;61272;-84
2023/01/29 00:34:16;;;;;;;;;;;;;;;22.08;37.24;101162.57;105992;1283;61377;-85
2023/01/29 00:36:43;;;;;;;;;;;;;;;22.08;37.30;101165.63;106008;1285;61258;-84
2023/01/29 00:39:12;;;;;;;;;;;;;;;22.08;37.21;101169.02;106004;1284;73525;-84
2023/01/29 00:49:52;;;;;;;;;;;;;;;22.08;37.27;101163.86;106015;1283;72690;-84
2023/01/29 00:52:23;;;;;;;;;;;;;;;22.08;37.18;101161.02;106013;1287;73411;-84
2023/01/29 00:54:53;;;;;;;;;;;;;;;22.08;37.23;101167.42;106041;1283;61269;-84
2023/01/29 00:57:19;;;;;;;;;;;;;;;22.08;37.20;101169.59;105981;1284;60419;-85
2023/01/29 00:59:44;;;;;;;;;;;;;;;22.08;37.19;101169.39;106019;1285;61261;-85
2023/01/29 01:04:54;;;;;;;;;;;;;;;22.09;37.31;101178.13;105997;1285;61342;-85
2023/01/29 01:07:20;;;;;;;;;;;;;;;22.09;37.18;101181.54;106031;1285;61298;-84
2023/01/29 01:12:32;;;;;;;;;;;;;;;22.09;37.29;101184.19;105984;1284;74578;-85
2023/01/29 01:14:57;;;;;;;;;;;;;;;22.09;37.30;101189.77;105981;1283;61252;-85
2023/01/29 01:17:23;;;;;;;;;;;;;;;22.09;37.26;101187.60;105977;1288;61363;-85
2023/01/29 01:19:48;;;;;;;;;;;;;;;22.09;37.33;101189.41;106015;1283;61269;-84
2023/01/29 01:22:15;;;;;;;;;;;;;;;22.09;37.38;101195.67;106017;1283;61268;-84
2023/01/29 01:24:40;;;;;;;;;;;;;;;22.09;37.32;101191.91;105991;1283;74514;-84
2023/01/29 01:27:06;;;;;;;;;;;;;;;22.09;37.20;101197.46;105501;1283;695123;-84
2023/01/29 01:29:31;;;;;;;;;;;;;;;22.09;37.26;101196.91;105989;1283;61173;-85
2023/01/29 01:31:57;;;;;;;;;;;;;;;22.09;37.25;101198.17;105947;1283;61265;-85
2023/01/29 01:34:23;;;;;;;;;;;;;;;22.10;37.42;101200.47;105886;1285;61274;-85
2023/01/29 01:36:48;;;;;;;;;;;;;;;22.09;37.29;101200.89;106019;1288;61342;-84
2023/01/29 01:39:14;;;;;;;;;;;;;;;22.09;37.27;101199.61;106056;1283;61386;-84
2023/01/29 01:41:39;;;;;;;;;;;;;;;22.10;37.28;101201.55;106038;1283;61359;-83
2023/01/29 01:44:05;;;;;;;;;;;;;;;22.09;37.25;101200.84;105895;1283;61297;-83
2023/01/29 01:46:33;;;;;;;;;;;;;;;22.09;37.36;101205.31;105978;1289;61901;-84
2023/01/29 01:49:02;;;;;;;;;;;;;;;22.10;37.27;101208.53;105973;1283;61357;-84
2023/01/29 01:51:29;;;;;;;;;;;;;;;22.10;37.29;101207.44;106059;1283;61285;-83
2023/01/29 01:53:56;;;;;;;;;;;;;;;22.10;37.31;101208.48;106037;1285;73339;-83
2023/01/29 01:56:27;;;;;;;;;;;;;;;22.10;37.24;101208.68;106045;1283;74249;-83
2023/01/29 01:58:54;;;;;;;;;;;;;;;22.10;37.29;101204.90;106016;1283;61332;-84
2023/01/29 02:01:26;;;;;;;;;;;;;;;22.11;37.34;101203.45;106040;1283;61167;-83
2023/01/29 02:09:32;;;;;;;;;;;;;;;22.11;37.27;101202.89;106050;1283;61259;-84
2023/01/29 02:11:58;;;;;;;;;;;;;;;22.12;37.40;101204.48;106046;1284;60327;-84
2023/01/29 02:14:24;;;;;;;;;;;;;;;22.11;37.28;101200.71;106135;1283;61302;-84
2023/01/29 02:16:50;;;;;;;;;;;;;;;22.12;37.35;101201.02;106179;1283;61296;-84
2023/01/29 02:19:17;;;;;;;;;;;;;;;22.12;37.42;101201.92;106222;1283;61241;-84
2023/01/29 02:21:46;;;;;;;;;;;;;;;22.13;37.37;101201.70;106342;1282;61279;-84
2023/01/29 02:24:17;;;;;;;;;;;;;;;22.13;37.24;101203.64;106283;1283;73514;-84
2023/01/29 02:26:49;;;;;;;;;;;;;;;22.13;37.35;101201.86;106048;1285;73440;-84
2023/01/29 02:29:26;;;;;;;;;;;;;;;22.14;37.33;101195.38;105988;1283;61328;-84
2023/01/29 02:32:16;;;;;;;;;;;;;;;22.14;37.39;101196.75;106049;1285;61260;-83
2023/01/29 02:37:40;;;;;;;;;;;;;;;22.15;37.28;101199.76;106047;1285;74592;-83
2023/01/29 02:40:16;;;;;;;;;;;;;;;22.15;37.25;101198.67;105839;1286;61306;-83
2023/01/29 02:43:04;;;;;;;;;;;;;;;22.15;37.31;101201.57;106025;1283;61279;-83
2023/01/29 02:45:50;;;;;;;;;;;;;;;22.15;37.31;101204.79;106003;1283;73498;-84
2023/01/29 02:48:21;;;;;;;;;;;;;;;22.16;37.35;101205.27;105955;1283;74918;-83
2023/01/29 02:50:49;;;;;;;;;;;;;;;22.15;37.34;101202.23;106047;1283;61258;-83
2023/01/29 02:53:18;;;;;;;;;;;;;;;22.16;37.28;101199.73;106083;1284;61059;-85
2023/01/29 02:55:52;;;;;;;;;;;;;;;22.15;37.28;101201.19;105974;1283;73346;-85
2023/01/29 02:58:24;;;;;;;;;;;;;;;22.16;37.28;101202.58;105956;1284;73413;-84
2023/01/29 03:00:49;;;;;;;;;;;;;;;22.16;37.30;101204.54;106077;1283;60232;-84
2023/01/29 03:03:18;;;;;;;;;;;;;;;22.15;37.31;101197.59;105977;1283;61491;-83
2023/01/29 03:05:55;;;;;;;;;;;;;;;22.15;37.28;101201.53;106057;1287;73568;-83
2023/01/29 03:08:35;;;;;;;;;;;;;;;22.15;37.27;101199.17;106067;1285;75796;-83
2023/01/29 03:11:05;;;;;;;;;;;;;;;22.16;37.25;101199.88;105981;1288;61103;-84
2023/01/29 03:13:31;;;;;;;;;;;;;;;22.15;37.29;101202.40;105940;1283;59972;-83
2023/01/29 03:16:14;;;;;;;;;;;;;;;22.16;37.27;101202.92;106055;1283;61339;-83
2023/01/29 03:18:44;;;;;;;;;;;;;;;22.16;37.32;101200.59;105971;1285;73455;-83
2023/01/29 03:32:15;;;;;;;;;;;;;;;22.16;37.26;101203.46;106002;1283;61126;-84
2023/01/29 03:34:42;;;;;;;;;;;;;;;22.16;37.23;101207.06;105940;1283;61264;-84
2023/01/29 03:37:20;;;;;;;;;;;;;;;22.16;37.31;101208.66;105711;1284;72474;-84
2023/01/29 03:39:45;;;;;;;;;;;;;;;22.16;37.32;101210.46;106100;1283;75873;-83
2023/01/29 03:42:18;;;;;;;;;;;;;;;22.16;37.29;101216.36;106233;1282;61265;-83
2023/01/29 03:44:43;;;;;;;;;;;;;;;22.16;37.19;101215.82;106264;1282;61244;-83
2023/01/29 03:47:27;;;;;;;;;;;;;;;22.16;37.34;101222.44;106282;1282;61370;-83
2023/01/29 03:50:00;;;;;;;;;;;;;;;22.17;37.37;101227.76;106266;1282;74143;-83
2023/01/29 03:52:26;;;;;;;;;;;;;;;22.17;37.23;101222.04;106321;1282;61254;-83
2023/01/29 03:55:00;;;;;;;;;;;;;;;22.18;37.23;101224.31;106250;1282;59286;-83
2023/01/29 03:57:31;;;;;;;;;;;;;;;22.18;37.44;101228.77;106148;1282;73439;-83
2023/01/29 04:00:01;;;;;;;;;;;;;;;22.18;37.44;101230.90;106190;1282;75151;-83
2023/01/29 04:02:29;;;;;;;;;;;;;;;22.18;37.42;101231.78;106091;1282;60324;-84
2023/01/29 04:04:56;;;;;;;;;;;;;;;22.19;37.37;101232.33;106109;1282;61199;-83
2023/01/29 04:07:25;;;;;;;;;;;;;;;22.19;37.26;101228.70;106115;1282;73234;-83
2023/01/29 04:09:52;;;;;;;;;;;;;;;22.19;37.20;101233.38;105954;1282;74707;-84
2023/01/29 04:12:19;;;;;;;;;;;;;;;22.18;37.20;101233.60;106194;1282;61280;-84
2023/01/29 04:14:45;;;;;;;;;;;;;;;22.18;37.29;101235.77;106195;1282;61149;-84
2023/01/29 04:17:17;;;;;;;;;;;;;;;22.18;37.24;101240.39;105983;1282;61870;-83
2023/01/29 04:19:43;;;;;;;;;;;;;;;22.19;37.21;101242.70;106148;1282;75352;-83
2023/01/29 04:22:13;;;;;;;;;;;;;;;22.18;37.23;101243.80;105987;1285;61304;-83
2023/01/29 04:24:39;;;;;;;;;;;;;;;22.18;37.26;101245.77;106131;1282;61295;-83
2023/01/29 04:27:07;;;;;;;;;;;;;;;22.18;37.22;101248.64;106208;1282;61276;-84
2023/01/29 04:29:50;;;;;;;;;;;;;;;22.19;37.22;101250.05;106192;1282;74241;-84
2023/01/29 04:32:26;;;;;;;;;;;;;;;22.19;37.25;101252.02;106110;1282;61267;-84
2023/01/29 04:35:11;;;;;;;;;;;;;;;22.18;37.28;101255.45;106222;1282;61111;-84
2023/01/29 04:37:49;;;;;;;;;;;;;;;22.19;37.30;101253.99;106119;1282;73494;-83
2023/01/29 04:40:27;;;;;;;;;;;;;;;22.19;37.21;101257.23;106011;1288;74531;-83
2023/01/29 04:42:53;;;;;;;;;;;;;;;22.19;37.35;101255.44;106263;1282;61087;-83
2023/01/29 04:45:26;;;;;;;;;;;;;;;22.18;37.25;101257.59;106333;1282;61722;-84
2023/01/29 04:48:00;;;;;;;;;;;;;;;22.19;37.25;101262.60;106181;1282;73865;-83
2023/01/29 04:50:32;;;;;;;;;;;;;;;22.19;37.25;101262.23;106432;1282;73562;-83
2023/01/29 04:53:33;;;;;;;;;;;;;;;22.20;37.43;101259.86;106298;1282;61238;-84
2023/01/29 04:56:17;;;;;;;;;;;;;;;22.20;37.30;101257.69;105534;1288;61153;-84
2023/01/29 04:58:44;;;;;;;;;;;;;;;22.20;37.39;101260.52;105498;1288;72293;-84
2023/01/29 05:01:11;;;;;;;;;;;;;;;22.20;37.29;101260.50;105407;1288;75305;-84
2023/01/29 05:03:39;;;;;;;;;;;;;;;22.21;37.34;101265.67;105504;1288;61223;-84
2023/01/29 05:06:05;;;;;;;;;;;;;;;22.21;37.28;101273.77;105325;1288;61420;-84
2023/01/29 05:08:30;;;;;;;;;;;;;;;22.20;37.31;101272.72;105443;1288;60715;-84
2023/01/29 05:10:58;;;;;;;;;;;;;;;22.21;37.33;101278.75;105522;1288;61324;-84
2023/01/29 05:13:24;;;;;;;;;;;;;;;22.20;37.32;101278.79;105498;1288;61208;-83
2023/01/29 05:15:57;;;;;;;;;;;;;;;22.21;37.27;101285.40;105361;1288;61308;-84
2023/01/29 05:18:24;;;;;;;;;;;;;;;22.21;37.25;101286.10;105491;1288;72621;-84
2023/01/29 05:20:50;;;;;;;;;;;;;;;22.21;37.25;101287.55;105253;1288;75448;-84
2023/01/29 05:23:16;;;;;;;;;;;;;;;22.21;37.25;101290.40;105452;1288;61312;-84
2023/01/29 05:25:42;;;;;;;;;;;;;;;22.21;37.25;101291.84;105482;1288;61318;-84
2023/01/29 05:28:18;;;;;;;;;;;;;;;22.21;37.29;101292.94;105446;1288;61263;-84
2023/01/29 05:30:44;;;;;;;;;;;;;;;22.21;37.28;101293.42;105796;1282;74519;-84
2023/01/29 05:33:12;;;;;;;;;;;;;;;22.21;37.38;101294.70;106172;1282;61258;-83
2023/01/29 05:35:40;;;;;;;;;;;;;;;22.22;37.34;101297.89;106219;1282;61213;-83
2023/01/29 05:38:08;;;;;;;;;;;;;;;22.21;37.32;101297.39;106167;1282;73726;-83
2023/01/29 05:40:33;;;;;;;;;;;;;;;22.21;37.17;101299.92;106064;1282;75291;-83
2023/01/29 05:42:59;;;;;;;;;;;;;;;22.21;37.26;101302.77;106195;1282;60093;-83
2023/01/29 05:45:25;;;;;;;;;;;;;;;22.21;37.36;101308.69;105982;1282;69416;-83
2023/01/29 05:47:54;;;;;;;;;;;;;;;22.21;37.33;101312.60;106183;1282;61289;-83
2023/01/29 05:50:22;;;;;;;;;;;;;;;22.21;37.28;101309.75;106101;1282;73733;-84
2023/01/29 05:52:47;;;;;;;;;;;;;;;22.22;37.27;101309.71;106121;1282;61353;-84
2023/01/29 05:55:13;;;;;;;;;;;;;;;22.21;37.42;101312.60;106197;1282;61391;-84
2023/01/29 05:57:39;;;;;;;;;;;;;;;22.22;37.30;101314.21;106112;1282;61271;-84
2023/01/29 06:00:04;;;;;;;;;;;;;;;22.22;37.28;101317.44;106189;1282;61263;-84
2023/01/29 06:02:30;;;;;;;;;;;;;;;22.22;37.24;101320.81;106078;1282;61250;-84
2023/01/29 06:04:56;;;;;;;;;;;;;;;22.22;37.32;101324.23;106010;1285;61729;-84
2023/01/29 06:07:21;;;;;;;;;;;;;;;22.23;37.25;101325.43;106115;1282;61183;-83
2023/01/29 06:09:47;;;;;;;;;;;;;;;22.23;37.31;101328.85;106194;1284;61300;-83
2023/01/29 06:12:12;;;;;;;;;;;;;;;22.23;37.27;101330.24;105954;1282;61228;-83
2023/01/29 06:14:38;;;;;;;;;;;;;;;22.23;37.33;101332.75;106095;1282;61452;-83
2023/01/29 06:17:04;;;;;;;;;;;;;;;22.23;37.34;101339.02;106225;1282;61227;-83
2023/01/29 06:19:30;;;;;;;;;;;;;;;22.23;37.20;101343.50;106096;1282;61096;-83
2023/01/29 06:21:55;;;;;;;;;;;;;;;22.24;37.24;101344.20;106057;1282;61271;-83
2023/01/29 06:24:21;;;;;;;;;;;;;;;22.24;37.22;101338.81;106097;1287;61214;-84
2023/01/29 06:26:47;;;;;;;;;;;;;;;22.24;37.23;101339.89;106079;1282;61346;-84
2023/01/29 06:29:12;;;;;;;;;;;;;;;22.24;37.29;101343.05;106029;1282;61346;-84
2023/01/29 06:31:39;;;;;;;;;;;;;;;22.24;37.34;101341.45;106106;1282;61238;-84
2023/01/29 06:34:05;;;;;;;;;;;;;;;22.25;37.35;101344.27;106192;1282;72545;-84
2023/01/29 06:36:30;;;;;;;;;;;;;;;22.25;37.31;101345.70;106162;1282;61269;-83
2023/01/29 06:38:56;;;;;;;;;;;;;;;22.25;37.16;101350.88;106088;1282;61244;-83
2023/01/29 06:41:24;;;;;;;;;;;;;;;22.25;37.22;101356.44;106079;1283;61272;-83
2023/01/29 06:43:49;;;;;;;;;;;;;;;22.26;37.33;101362.34;106097;1282;61391;-83
2023/01/29 06:46:15;;;;;;;;;;;;;;;22.26;37.32;101370.19;106085;1282;61263;-84
2023/01/29 06:48:40;;;;;;;;;;;;;;;22.26;37.24;101375.02;106216;1282;61363;-84
2023/01/29 06:51:06;;;;;;;;;;;;;;;22.26;37.20;101372.84;106128;1282;61278;-83
2023/01/29 06:53:34;;;;;;;;;;;;;;;22.26;37.25;101374.11;106199;1282;61172;-83
2023/01/29 06:56:00;;;;;;;;;;;;;;;22.27;37.29;101380.52;106079;1287;73487;-83
2023/01/29 06:58:25;;;;;;;;;;;;;;;22.27;37.30;101379.61;106056;1282;62106;-83
2023/01/29 07:00:51;;;;;;;;;;;;;;;22.28;37.27;101379.05;106000;1282;61385;-83
2023/01/29 07:03:16;;;;;;;;;;;;;;;22.28;37.10;101381.89;106111;1282;61291;-83
2023/01/29 07:05:42;;;;;;;;;;;;;;;22.28;37.34;101382.27;106095;1284;59877;-83
2023/01/29 07:08:11;;;;;;;;;;;;;;;22.28;37.27;101383.51;106078;1282;61244;-83
2023/01/29 07:10:36;;;;;;;;;;;;;;;22.29;37.20;101389.73;106179;1282;73241;-84
2023/01/29 07:13:02;;;;;;;;;;;;;;;22.30;37.37;101392.36;106190;1282;61273;-84
2023/01/29 07:15:27;;;;;;;;;;;;;;;22.30;37.33;101391.64;106182;1282;61264;-84
2023/01/29 07:18:00;;;;;;;;;;;;;;;22.31;37.24;101392.52;106414;1282;61228;-84
2023/01/29 07:20:26;;;;;;;;;;;;;;;22.31;37.20;101392.46;106222;1282;74384;-84
2023/01/29 07:22:52;;;;;;;;;;;;;;;22.32;37.34;101393.70;106108;1282;61350;-84
2023/01/29 07:25:18;;;;;;;;;;;;;;;22.32;37.26;101395.08;105992;1282;61291;-84
2023/01/29 07:27:43;;;;;;;;;;;;;;;22.33;37.33;101399.01;106082;1282;61365;-84
2023/01/29 07:30:09;;;;;;;;;;;;;;;22.33;37.27;101396.63;106102;1282;61277;-83
2023/01/29 07:32:34;;;;;;;;;;;;;;;22.33;37.32;101394.15;106108;1282;61237;-84
2023/01/29 07:35:00;;;;;;;;;;;;;;;22.33;37.26;101396.45;106075;1283;61246;-83
2023/01/29 07:37:26;;;;;;;;;;;;;;;22.34;37.32;101396.77;105933;1283;60510;-84
2023/01/29 07:39:51;;;;;;;;;;;;;;;22.33;37.19;101400.75;105990;1284;61418;-83
2023/01/29 07:42:17;;;;;;;;;;;;;;;22.33;37.17;101399.85;105991;1285;61340;-83
2023/01/29 07:44:42;;;;;;;;;;;;;;;22.33;37.20;101405.59;106006;1283;61337;-83
2023/01/29 07:47:08;;;;;;;;;;;;;;;22.33;37.26;101412.41;106052;1285;61241;-83
2023/01/29 07:49:33;;;;;;;;;;;;;;;22.33;37.17;101415.29;105973;1285;61154;-83
2023/01/29 07:52:01;;;;;;;;;;;;;;;22.33;37.08;101414.38;106006;1284;61432;-83
2023/01/29 07:54:27;;;;;;;;;;;;;;;22.33;37.14;101411.15;105913;1283;61106;-84
2023/01/29 07:56:53;;;;;;;;;;;;;;;22.34;37.16;101411.86;106018;1284;61277;-84
2023/01/29 07:59:18;;;;;;;;;;;;;;;22.34;37.19;101421.16;105937;1283;61394;-84
2023/01/29 08:01:44;;;;;;;;;;;;;;;22.33;37.27;101419.05;106015;1283;61384;-84
2023/01/29 08:04:10;;;;;;;;;;;;;;;22.33;37.16;101423.02;106012;1284;61382;-84
2023/01/29 08:06:35;;;;;;;;;;;;;;;22.32;37.23;101422.67;106061;1284;60138;-84
2023/01/29 08:09:02;;;;;;;;;;;;;;;22.33;37.24;101423.20;105982;1283;61269;-84
2023/01/29 08:11:28;;;;;;;;;;;;;;;22.33;37.13;101422.31;106020;1283;61185;-84
2023/01/29 08:13:54;;;;;;;;;;;;;;;22.33;37.25;101423.21;105993;1283;61336;-84
2023/01/29 08:16:19;;;;;;;;;;;;;;;22.33;37.20;101423.91;106038;1283;61304;-83
2023/01/29 08:18:47;;;;;;;;;;;;;;;22.33;37.15;101430.55;105992;1283;61238;-83
2023/01/29 08:21:12;;;;;;;;;;;;;;;22.33;37.09;101429.66;106067;1283;61264;-84
2023/01/29 08:23:38;;;;;;;;;;;;;;;22.33;37.18;101426.94;106059;1283;61225;-84
2023/01/29 08:26:05;;;;;;;;;;;;;;;22.33;37.21;101423.38;105999;1284;61290;-84
2023/01/29 08:28:31;;;;;;;;;;;;;;;22.33;37.18;101425.70;106011;1283;61231;-84
2023/01/29 08:30:57;;;;;;;;;;;;;;;22.33;37.15;101428.19;106067;1287;61245;-84
2023/01/29 08:33:23;;;;;;;;;;;;;;;22.33;37.01;101430.35;106030;1283;61320;-84
2023/01/29 08:35:49;;;;;;;;;;;;;;;22.33;37.24;101431.79;106074;1285;72854;-84
2023/01/29 08:38:15;;;;;;;;;;;;;;;22.33;37.14;101444.34;105951;1283;73445;-84
2023/01/29 08:40:41;;;;;;;;;;;;;;;22.33;37.18;101444.02;106013;1283;61737;-84
2023/01/29 08:43:07;;;;;;;;;;;;;;;22.33;37.21;101446.65;106056;1285;59262;-84
2023/01/29 08:45:33;;;;;;;;;;;;;;;22.34;37.14;101445.73;105968;1283;61278;-84
2023/01/29 08:48:22;;;;;;;;;;;;;;;22.33;37.28;101443.23;106005;1283;59269;-83
2023/01/29 08:50:47;;;;;;;;;;;;;;;22.34;37.13;101444.85;105696;1289;61076;-84
2023/01/29 08:53:13;;;;;;;;;;;;;;;22.34;37.23;101446.27;105492;1289;61374;-84
2023/01/29 08:55:38;;;;;;;;;;;;;;;22.34;37.18;101443.38;105696;1288;61098;-84
2023/01/29 08:58:05;;;;;;;;;;;;;;;22.34;37.14;101445.88;105558;1288;60001;-84
2023/01/29 09:00:31;;;;;;;;;;;;;;;22.34;37.15;101441.03;105722;1287;61330;-84
2023/01/29 09:02:58;;;;;;;;;;;;;;;22.35;37.09;101441.02;105559;1289;61575;-84
2023/01/29 09:05:24;;;;;;;;;;;;;;;22.35;37.15;101442.06;105657;1287;61272;-84
2023/01/29 09:07:49;;;;;;;;;;;;;;;22.36;37.12;101440.08;105572;1289;61526;-83
2023/01/29 09:10:16;;;;;;;;;;;;;;;22.36;37.09;101437.90;105556;1289;61406;-83
2023/01/29 09:12:42;;;;;;;;;;;;;;;22.36;37.24;101439.85;105596;1289;61875;-84
2023/01/29 09:15:08;;;;;;;;;;;;;;;22.37;37.22;101440.35;105634;1288;61298;-84
2023/01/29 09:17:35;;;;;;;;;;;;;;;22.36;37.08;101437.86;105710;1287;72292;-84
2023/01/29 09:20:00;;;;;;;;;;;;;;;22.37;37.18;101434.80;105737;1288;61436;-85
2023/01/29 09:22:26;;;;;;;;;;;;;;;22.37;37.11;101430.85;105597;1289;61372;-84
2023/01/29 09:24:52;;;;;;;;;;;;;;;22.37;37.05;101430.84;105733;1289;61393;-84
2023/01/29 09:27:17;;;;;;;;;;;;;;;22.38;37.11;101425.05;105646;1285;61358;-84
2023/01/29 09:29:43;;;;;;;;;;;;;;;22.38;37.07;101421.80;106094;1285;61274;-84
2023/01/29 09:32:08;;;;;;;;;;;;;;;22.38;37.08;101422.16;106097;1284;61298;-84
2023/01/29 09:34:34;;;;;;;;;;;;;;;22.38;37.11;101414.80;106138;1283;59236;-83
2023/01/29 09:36:59;;;;;;;;;;;;;;;22.38;37.21;101414.42;106145;1284;61291;-83
2023/01/29 09:39:25;;;;;;;;;;;;;;;22.39;37.15;101415.64;106211;1284;61226;-84
2023/01/29 09:41:52;;;;;;;;;;;;;;;22.40;37.16;101413.98;106271;1283;61301;-85
2023/01/29 09:44:17;;;;;;;;;;;;;;;22.40;37.14;101414.48;106356;1283;73512;-84
2023/01/29 09:46:43;;;;;;;;;;;;;;;22.41;37.13;101413.88;106360;1283;61381;-84
2023/01/29 09:49:18;;;;;;;;;;;;;;;22.42;37.16;101412.75;106306;1283;61256;-84
2023/01/29 09:51:45;;;;;;;;;;;;;;;22.42;37.11;101411.86;106079;1283;72376;-84
2023/01/29 09:54:13;;;;;;;;;;;;;;;22.42;37.04;101413.25;106133;1285;74252;-84
2023/01/29 09:56:39;;;;;;;;;;;;;;;22.43;37.07;101413.95;106100;1287;61161;-83
2023/01/29 09:59:04;;;;;;;;;;;;;;;22.43;37.11;101414.11;106116;1283;61320;-83
2023/01/29 10:01:39;;;;;;;;;;;;;;;22.43;37.08;101409.41;106085;1284;61888;-83
2023/01/29 10:04:21;;;;;;;;;;;;;;;22.44;37.06;101406.01;106000;1283;75421;-84
2023/01/29 10:06:56;;;;;;;;;;;;;;;22.44;37.12;101411.00;106053;1284;61398;-83
2023/01/29 10:09:40;;;;;;;;;;;;;;;22.44;37.15;101405.07;106049;1285;61351;-83
2023/01/29 10:12:09;;;;;;;;;;;;;;;22.43;37.04;101401.33;106044;1284;73256;-83
2023/01/29 10:14:37;;;;;;;;;;;;;;;22.43;37.05;101398.49;106040;1284;74454;-84
2023/01/29 10:17:11;;;;;;;;;;;;;;;22.43;37.00;101400.45;106033;1283;61276;-84
2023/01/29 10:19:40;;;;;;;;;;;;;;;22.43;36.99;101399.05;106013;1284;61274;-84
2023/01/29 10:22:25;;;;;;;;;;;;;;;22.42;37.07;101397.48;106042;1284;73303;-84
2023/01/29 10:24:59;;;;;;;;;;;;;;;22.42;37.14;101396.59;106011;1283;75725;-84
2023/01/29 10:27:26;;;;;;;;;;;;;;;22.42;37.05;101399.10;105963;1283;61319;-84
2023/01/29 10:29:52;;;;;;;;;;;;;;;22.43;37.15;101395.31;105995;1284;61255;-84
2023/01/29 10:32:19;;;;;;;;;;;;;;;22.42;37.01;101391.75;105988;1285;61352;-84
2023/01/29 10:34:49;;;;;;;;;;;;;;;22.42;36.97;101390.14;105998;1285;61196;-84
2023/01/29 10:37:17;;;;;;;;;;;;;;;22.42;37.04;101392.11;106044;1285;61228;-84
2023/01/29 10:39:42;;;;;;;;;;;;;;;22.42;37.11;101389.95;106078;1283;61463;-84
2023/01/29 10:42:08;;;;;;;;;;;;;;;22.42;36.95;101394.64;106030;1284;61263;-84
2023/01/29 10:44:40;;;;;;;;;;;;;;;22.42;37.05;101393.92;106040;1284;61339;-84
2023/01/29 10:47:07;;;;;;;;;;;;;;;22.42;37.10;101391.06;106056;1285;61156;-84
2023/01/29 10:49:40;;;;;;;;;;;;;;;22.42;37.03;101386.93;106033;1283;61137;-84
2023/01/29 10:52:10;;;;;;;;;;;;;;;22.42;36.93;101385.14;106068;1285;73405;-84
2023/01/29 10:54:40;;;;;;;;;;;;;;;22.41;36.98;101382.11;105940;1289;74488;-84
2023/01/29 10:57:08;;;;;;;;;;;;;;;22.41;37.14;101380.32;106052;1285;61122;-84
2023/01/29 10:59:41;;;;;;;;;;;;;;;22.41;37.05;101381.05;106036;1283;61143;-84
2023/01/29 11:02:14;;;;;;;;;;;;;;;22.41;37.11;101376.90;106048;1285;72291;-84
2023/01/29 11:04:41;;;;;;;;;;;;;;;22.42;36.91;101372.23;106016;1284;75467;-84
2023/01/29 11:07:07;;;;;;;;;;;;;;;22.42;37.03;101369.70;105993;1288;61256;-84
2023/01/29 11:09:42;;;;;;;;;;;;;;;22.42;37.10;101366.83;106089;1285;61109;-84
2023/01/29 11:12:12;;;;;;;;;;;;;;;22.42;37.04;101367.36;106075;1285;73750;-84
2023/01/29 11:14:47;;;;;;;;;;;;;;;22.43;37.08;101364.27;105992;1284;74455;-84
2023/01/29 11:17:16;;;;;;;;;;;;;;;22.42;37.13;101359.46;106057;1284;61177;-84
2023/01/29 11:19:42;;;;;;;;;;;;;;;22.43;37.02;101356.74;106001;1283;61232;-84
2023/01/29 11:22:14;;;;;;;;;;;;;;;22.42;37.06;101356.58;105988;1285;61235;-84
2023/01/29 11:24:40;;;;;;;;;;;;;;;22.43;37.06;101356.35;105976;1284;74526;-83
2023/01/29 11:27:16;;;;;;;;;;;;;;;22.44;37.05;101356.15;105999;1285;61257;-84
2023/01/29 11:29:45;;;;;;;;;;;;;;;22.44;37.06;101354.33;106045;1285;61166;-84
2023/01/29 11:32:22;;;;;;;;;;;;;;;22.44;37.04;101350.03;105972;1283;72375;-84
2023/01/29 11:35:02;;;;;;;;;;;;;;;22.45;37.08;101344.80;106049;1284;74386;-84
2023/01/29 11:37:37;;;;;;;;;;;;;;;22.45;37.00;101338.87;106059;1284;61236;-84
2023/01/29 11:40:26;;;;;;;;;;;;;;;22.45;37.04;101332.77;106025;1285;61134;-84
2023/01/29 11:42:52;;;;;;;;;;;;;;;22.45;37.04;101326.30;106012;1284;73593;-84
2023/01/29 11:45:24;;;;;;;;;;;;;;;22.45;37.11;101325.94;106001;1283;61375;-85
2023/01/29 11:47:49;;;;;;;;;;;;;;;22.46;37.02;101325.89;106056;1283;61411;-84
2023/01/29 11:50:24;;;;;;;;;;;;;;;22.46;37.02;101329.65;106076;1283;61226;-84
2023/01/29 11:52:50;;;;;;;;;;;;;;;22.46;37.09;101325.17;106054;1285;72507;-84
2023/01/29 11:55:22;;;;;;;;;;;;;;;22.46;37.12;101323.34;106013;1283;61366;-84
2023/01/29 11:57:49;;;;;;;;;;;;;;;22.46;37.01;101323.34;106029;1283;61342;-84
2023/01/29 12:00:21;;;;;;;;;;;;;;;22.47;37.02;101326.72;106058;1284;61263;-85
2023/01/29 12:02:48;;;;;;;;;;;;;;;22.47;37.09;101325.98;106028;1285;73408;-85
2023/01/29 12:05:14;;;;;;;;;;;;;;;22.47;36.99;101324.75;106054;1285;61257;-85
2023/01/29 12:07:41;;;;;;;;;;;;;;;22.47;36.90;101326.33;106073;1285;61343;-85
2023/01/29 12:10:11;;;;;;;;;;;;;;;22.47;37.04;101325.41;106041;1283;61244;-84
2023/01/29 12:12:39;;;;;;;;;;;;;;;22.47;36.99;101324.33;106156;1285;72474;-85
2023/01/29 12:15:08;;;;;;;;;;;;;;;22.47;36.93;101326.88;106428;1282;74422;-84
2023/01/29 12:17:35;;;;;;;;;;;;;;;22.47;37.01;101325.07;106937;1284;61254;-85
2023/01/29 12:20:22;;;;;;;;;;;;;;;22.48;37.12;101326.45;106291;1282;61119;-85
2023/01/29 12:22:52;;;;;;;;;;;;;;;22.49;37.16;101330.33;106253;1282;72500;-85
2023/01/29 12:25:19;;;;;;;;;;;;;;;22.48;37.03;101332.86;106306;1281;75413;-84
2023/01/29 12:27:56;;;;;;;;;;;;;;;22.49;37.06;101332.80;106283;1280;61184;-84
2023/01/29 12:30:27;;;;;;;;;;;;;;;22.50;37.01;101330.59;106253;1282;61272;-84
2023/01/29 12:33:22;;;;;;;;;;;;;;;22.50;36.99;101328.63;106235;1283;73490;-84
2023/01/29 12:36:01;;;;;;;;;;;;;;;22.50;37.06;101325.77;106112;1282;75456;-85
2023/01/29 12:38:26;;;;;;;;;;;;;;;22.50;36.90;101324.50;106225;1282;61121;-85
2023/01/29 12:40:55;;;;;;;;;;;;;;;22.50;36.97;101321.79;106207;1282;61257;-84
2023/01/29 12:43:23;;;;;;;;;;;;;;;22.50;37.03;101320.34;106285;1282;72474;-83
2023/01/29 12:45:51;;;;;;;;;;;;;;;22.50;37.03;101322.15;106283;1282;74657;-84
2023/01/29 12:48:19;;;;;;;;;;;;;;;22.51;37.04;101323.39;106283;1283;61157;-84
2023/01/29 12:50:45;;;;;;;;;;;;;;;22.50;37.04;101322.86;106239;1282;61365;-84
2023/01/29 12:53:25;;;;;;;;;;;;;;;22.50;37.12;101324.48;105995;1282;61244;-84
2023/01/29 12:55:54;;;;;;;;;;;;;;;22.50;36.95;101329.14;106239;1282;74492;-84
2023/01/29 12:58:41;;;;;;;;;;;;;;;22.50;37.02;101326.08;106087;1283;60735;-84
2023/01/29 13:01:15;;;;;;;;;;;;;;;22.51;37.00;101326.94;106102;1284;61277;-84
2023/01/29 13:03:53;;;;;;;;;;;;;;;22.52;36.98;101329.59;106047;1285;73010;-84
2023/01/29 13:06:25;;;;;;;;;;;;;;;22.51;37.02;101333.74;106053;1285;73462;-84